sensor_id;sensor_type;location;lat;lon;timestamp;pressure;altitude;pressure_sealevel;temperature;humidity
42105;BME280;70664;51.472;5.712;2023-10-13T00:01:58;101088.38;;;19.50;74.86
42105;BME280;70664;51.472;5.712;2023-10-13T00:04:31;101084.91;;;19.50;75.18
42105;BME280;70664;51.472;5.712;2023-10-13T00:07:04;101077.09;;;19.50;74.94
42105;BME280;70664;51.472;5.712;2023-10-13T00:09:31;101071.03;;;19.49;74.87
42105;BME280;70664;51.472;5.712;2023-10-13T00:12:04;101077.16;;;19.48;74.83
42105;BME280;70664;51.472;5.712;2023-10-13T00:14:33;101064.09;;;19.48;75.17
42105;BME280;70664;51.472;5.712;2023-10-13T00:17:04;101061.50;;;19.48;75.02
42105;BME280;70664;51.472;5.712;2023-10-13T00:19:32;101050.19;;;19.48;74.63
42105;BME280;70664;51.472;5.712;2023-10-13T00:22:12;101064.09;;;19.48;74.70
42105;BME280;70664;51.472;5.712;2023-10-13T00:24:40;101058.03;;;19.48;74.75
42105;BME280;70664;51.472;5.712;2023-10-13T00:27:13;101056.31;;;19.46;74.78
42105;BME280;70664;51.472;5.712;2023-10-13T00:30:04;101053.69;;;19.46;74.57
42105;BME280;70664;51.472;5.712;2023-10-13T00:32:52;101050.25;;;19.46;74.65
42105;BME280;70664;51.472;5.712;2023-10-13T00:35:23;101042.44;;;19.46;75.00
42105;BME280;70664;51.472;5.712;2023-10-13T00:38:01;101041.56;;;19.45;74.97
42105;BME280;70664;51.472;5.712;2023-10-13T00:40:39;101038.13;;;19.45;74.65
42105;BME280;70664;51.472;5.712;2023-10-13T00:43:05;101040.72;;;19.45;74.80
42105;BME280;70664;51.472;5.712;2023-10-13T00:48:14;101037.25;;;19.44;74.69
42105;BME280;70664;51.472;5.712;2023-10-13T00:50:41;101038.97;;;19.45;74.80
42105;BME280;70664;51.472;5.712;2023-10-13T00:53:11;101033.81;;;19.44;74.92
42105;BME280;70664;51.472;5.712;2023-10-13T00:55:37;101030.31;;;19.43;74.74
42105;BME280;70664;51.472;5.712;2023-10-13T00:58:08;101024.28;;;19.43;74.79
42105;BME280;70664;51.472;5.712;2023-10-13T01:00:38;101027.72;;;19.43;74.84
42105;BME280;70664;51.472;5.712;2023-10-13T01:03:13;101023.38;;;19.44;74.60
42105;BME280;70664;51.472;5.712;2023-10-13T01:05:40;101021.66;;;19.43;74.74
42105;BME280;70664;51.472;5.712;2023-10-13T01:08:07;101015.59;;;19.42;74.56
42105;BME280;70664;51.472;5.712;2023-10-13T01:10:37;101012.06;;;19.43;74.46
42105;BME280;70664;51.472;5.712;2023-10-13T01:13:07;101005.16;;;19.42;74.86
42105;BME280;70664;51.472;5.712;2023-10-13T01:15:33;101002.53;;;19.42;74.43
42105;BME280;70664;51.472;5.712;2023-10-13T01:18:12;101011.25;;;19.43;74.61
42105;BME280;70664;51.472;5.712;2023-10-13T01:20:39;100996.50;;;19.42;74.36
42105;BME280;70664;51.472;5.712;2023-10-13T01:23:12;100996.50;;;19.42;74.71
42105;BME280;70664;51.472;5.712;2023-10-13T01:25:45;100993.88;;;19.42;74.45
42105;BME280;70664;51.472;5.712;2023-10-13T01:28:11;100983.50;;;19.40;74.54
42105;BME280;70664;51.472;5.712;2023-10-13T01:30:44;100983.47;;;19.42;74.56
42105;BME280;70664;51.472;5.712;2023-10-13T01:33:19;100982.59;;;19.41;74.28
42105;BME280;70664;51.472;5.712;2023-10-13T01:35:53;100970.44;;;19.40;74.67
42105;BME280;70664;51.472;5.712;2023-10-13T01:38:21;100966.09;;;19.41;74.42
42105;BME280;70664;51.472;5.712;2023-10-13T01:40:46;100963.53;;;19.39;74.60
42105;BME280;70664;51.472;5.712;2023-10-13T01:43:17;100959.22;;;19.38;74.52
42105;BME280;70664;51.472;5.712;2023-10-13T01:45:43;100955.72;;;19.39;74.30
42105;BME280;70664;51.472;5.712;2023-10-13T01:48:13;100952.25;;;19.39;74.18
42105;BME280;70664;51.472;5.712;2023-10-13T01:50:45;100940.06;;;19.39;74.20
42105;BME280;70664;51.472;5.712;2023-10-13T01:53:21;100933.16;;;19.38;74.42
42105;BME280;70664;51.472;5.712;2023-10-13T01:55:48;100933.16;;;19.38;74.66
42105;BME280;70664;51.472;5.712;2023-10-13T01:58:16;100929.69;;;19.38;74.54
42105;BME280;70664;51.472;5.712;2023-10-13T02:00:46;100927.94;;;19.38;74.59
42105;BME280;70664;51.472;5.712;2023-10-13T02:03:13;100927.09;;;19.38;74.73
42105;BME280;70664;51.472;5.712;2023-10-13T02:05:48;100925.31;;;19.38;74.45
42105;BME280;70664;51.472;5.712;2023-10-13T02:08:19;100916.66;;;19.38;74.27
42105;BME280;70664;51.472;5.712;2023-10-13T02:10:55;100914.06;;;19.38;74.39
42105;BME280;70664;51.472;5.712;2023-10-13T02:13:24;100904.53;;;19.37;74.43
42105;BME280;70664;51.472;5.712;2023-10-13T02:15:55;100917.50;;;19.38;74.14
42105;BME280;70664;51.472;5.712;2023-10-13T02:18:27;100910.63;;;19.37;74.30
42105;BME280;70664;51.472;5.712;2023-10-13T02:20:54;100904.53;;;19.37;74.25
42105;BME280;70664;51.472;5.712;2023-10-13T02:23:24;100901.91;;;19.37;74.11
42105;BME280;70664;51.472;5.712;2023-10-13T02:26:02;100908.03;;;19.36;74.16
42105;BME280;70664;51.472;5.712;2023-10-13T02:28:38;100895.88;;;19.36;74.46
42105;BME280;70664;51.472;5.712;2023-10-13T02:31:04;100895.00;;;19.36;74.19
42105;BME280;70664;51.472;5.712;2023-10-13T02:33:33;100894.09;;;19.37;74.43
42105;BME280;70664;51.472;5.712;2023-10-13T02:36:01;100892.41;;;19.36;74.05
42105;BME280;70664;51.472;5.712;2023-10-13T02:38:32;100888.06;;;19.36;74.41
42105;BME280;70664;51.472;5.712;2023-10-13T02:41:14;100882.84;;;19.36;74.50
42105;BME280;70664;51.472;5.712;2023-10-13T02:43:55;100867.22;;;19.35;74.29
42105;BME280;70664;51.472;5.712;2023-10-13T02:46:22;100872.41;;;19.36;74.42
42105;BME280;70664;51.472;5.712;2023-10-13T02:48:49;100871.53;;;19.36;74.15
42105;BME280;70664;51.472;5.712;2023-10-13T02:51:23;100874.16;;;19.36;74.34
42105;BME280;70664;51.472;5.712;2023-10-13T02:54:01;100877.66;;;19.35;74.27
42105;BME280;70664;51.472;5.712;2023-10-13T02:56:36;100861.19;;;19.34;74.31
42105;BME280;70664;51.472;5.712;2023-10-13T02:59:03;100848.97;;;19.35;74.15
42105;BME280;70664;51.472;5.712;2023-10-13T03:01:35;100851.59;;;19.35;74.09
42105;BME280;70664;51.472;5.712;2023-10-13T03:04:04;100845.53;;;19.34;74.18
42105;BME280;70664;51.472;5.712;2023-10-13T03:06:35;100845.53;;;19.34;74.30
42105;BME280;70664;51.472;5.712;2023-10-13T03:09:05;100832.50;;;19.34;74.37
42105;BME280;70664;51.472;5.712;2023-10-13T03:11:48;100816.91;;;19.33;74.19
42105;BME280;70664;51.472;5.712;2023-10-13T03:14:21;100804.72;;;19.33;74.11
42105;BME280;70664;51.472;5.712;2023-10-13T03:17:07;100801.22;;;19.34;74.24
42105;BME280;70664;51.472;5.712;2023-10-13T03:19:46;100796.91;;;19.33;74.07
42105;BME280;70664;51.472;5.712;2023-10-13T03:22:20;100802.97;;;19.34;74.24
42105;BME280;70664;51.472;5.712;2023-10-13T03:24:56;100791.69;;;19.33;74.01
42105;BME280;70664;51.472;5.712;2023-10-13T03:27:30;100796.00;;;19.34;74.21
42105;BME280;70664;51.472;5.712;2023-10-13T03:30:25;100789.09;;;19.33;73.88
42105;BME280;70664;51.472;5.712;2023-10-13T03:33:02;100783.88;;;19.33;74.21
42105;BME280;70664;51.472;5.712;2023-10-13T03:35:35;100771.75;;;19.32;74.16
42105;BME280;70664;51.472;5.712;2023-10-13T03:38:06;100775.19;;;19.33;74.04
42105;BME280;70664;51.472;5.712;2023-10-13T03:40:46;100763.06;;;19.31;73.91
42105;BME280;70664;51.472;5.712;2023-10-13T03:43:21;100753.50;;;19.32;74.27
42105;BME280;70664;51.472;5.712;2023-10-13T03:45:50;100756.09;;;19.32;74.02
42105;BME280;70664;51.472;5.712;2023-10-13T03:48:26;100750.88;;;19.32;74.16
42105;BME280;70664;51.472;5.712;2023-10-13T03:51:01;100738.69;;;19.33;73.73
42105;BME280;70664;51.472;5.712;2023-10-13T03:53:37;100740.47;;;19.32;74.17
42105;BME280;70664;51.472;5.712;2023-10-13T03:56:22;100741.28;;;19.33;73.70
42105;BME280;70664;51.472;5.712;2023-10-13T03:59:05;100727.44;;;19.32;74.31
42105;BME280;70664;51.472;5.712;2023-10-13T04:01:41;100723.94;;;19.31;74.07
42105;BME280;70664;51.472;5.712;2023-10-13T04:04:11;100721.34;;;19.31;74.17
42105;BME280;70664;51.472;5.712;2023-10-13T04:06:38;100718.75;;;19.31;73.76
42105;BME280;70664;51.472;5.712;2023-10-13T04:09:19;100708.38;;;19.30;74.18
42105;BME280;70664;51.472;5.712;2023-10-13T04:11:58;100710.09;;;19.31;73.80
42105;BME280;70664;51.472;5.712;2023-10-13T04:14:35;100701.41;;;19.30;73.72
42105;BME280;70664;51.472;5.712;2023-10-13T04:17:20;100693.56;;;19.30;74.05
42105;BME280;70664;51.472;5.712;2023-10-13T04:19:50;100688.34;;;19.30;73.68
42105;BME280;70664;51.472;5.712;2023-10-13T04:28:06;100681.44;;;19.29;74.08
42105;BME280;70664;51.472;5.712;2023-10-13T04:30:56;100680.53;;;19.30;74.06
42105;BME280;70664;51.472;5.712;2023-10-13T04:33:30;100669.28;;;19.30;73.99
42105;BME280;70664;51.472;5.712;2023-10-13T04:36:12;100669.28;;;19.30;73.76
42105;BME280;70664;51.472;5.712;2023-10-13T04:39:03;100679.72;;;19.30;73.96
42105;BME280;70664;51.472;5.712;2023-10-13T04:41:34;100669.28;;;19.30;73.90
42105;BME280;70664;51.472;5.712;2023-10-13T04:44:14;100674.50;;;19.30;74.17
42105;BME280;70664;51.472;5.712;2023-10-13T04:46:50;100671.88;;;19.30;73.87
42105;BME280;70664;51.472;5.712;2023-10-13T04:49:26;100672.78;;;19.29;73.81
42105;BME280;70664;51.472;5.712;2023-10-13T04:52:16;100679.72;;;19.30;73.73
42105;BME280;70664;51.472;5.712;2023-10-13T04:55:02;100678.00;;;19.29;73.72
42105;BME280;70664;51.472;5.712;2023-10-13T04:57:58;100689.25;;;19.29;73.92
42105;BME280;70664;51.472;5.712;2023-10-13T05:00:37;100668.41;;;19.29;73.70
42105;BME280;70664;51.472;5.712;2023-10-13T05:03:38;100659.75;;;19.29;74.16
42105;BME280;70664;51.472;5.712;2023-10-13T05:06:19;100675.41;;;19.29;73.56
42105;BME280;70664;51.472;5.712;2023-10-13T05:09:04;100682.31;;;19.30;73.85
42105;BME280;70664;51.472;5.712;2023-10-13T05:11:49;100674.53;;;19.28;74.06
42105;BME280;70664;51.472;5.712;2023-10-13T05:14:33;100671.94;;;19.28;73.81
42105;BME280;70664;51.472;5.712;2023-10-13T05:17:18;100668.41;;;19.29;73.99
42105;BME280;70664;51.472;5.712;2023-10-13T05:20:02;100662.38;;;19.29;73.75
42105;BME280;70664;51.472;5.712;2023-10-13T05:22:47;100657.19;;;19.27;74.08
42105;BME280;70664;51.472;5.712;2023-10-13T05:25:35;100636.34;;;19.27;73.96
42105;BME280;70664;51.472;5.712;2023-10-13T05:28:20;100627.63;;;19.28;73.93
42105;BME280;70664;51.472;5.712;2023-10-13T05:31:06;100622.41;;;19.28;73.96
42105;BME280;70664;51.472;5.712;2023-10-13T05:33:51;100598.94;;;19.28;73.75
42105;BME280;70664;51.472;5.712;2023-10-13T05:36:35;100600.72;;;19.28;74.07
42105;BME280;70664;51.472;5.712;2023-10-13T05:39:20;100590.31;;;19.26;73.62
42105;BME280;70664;51.472;5.712;2023-10-13T05:42:05;100583.38;;;19.27;73.59
42105;BME280;70664;51.472;5.712;2023-10-13T05:44:49;100592.03;;;19.27;73.96
42105;BME280;70664;51.472;5.712;2023-10-13T05:47:34;100594.63;;;19.27;73.83
42105;BME280;70664;51.472;5.712;2023-10-13T05:50:13;100587.72;;;19.26;73.76
42105;BME280;70664;51.472;5.712;2023-10-13T05:52:49;100586.88;;;19.26;73.66
42105;BME280;70664;51.472;5.712;2023-10-13T05:55:30;100582.50;;;19.26;73.60
42105;BME280;70664;51.472;5.712;2023-10-13T05:58:16;100575.59;;;19.25;73.88
42105;BME280;70664;51.472;5.712;2023-10-13T06:01:00;100584.22;;;19.27;73.75
42105;BME280;70664;51.472;5.712;2023-10-13T06:03:44;100580.81;;;19.25;73.67
42105;BME280;70664;51.472;5.712;2023-10-13T06:06:29;100580.81;;;19.25;73.64
42105;BME280;70664;51.472;5.712;2023-10-13T06:09:14;100582.50;;;19.26;73.97
42105;BME280;70664;51.472;5.712;2023-10-13T06:11:58;100589.50;;;19.26;73.47
42105;BME280;70664;51.472;5.712;2023-10-13T06:14:47;100586.88;;;19.26;73.94
42105;BME280;70664;51.472;5.712;2023-10-13T06:17:31;100592.09;;;19.26;73.92
42105;BME280;70664;51.472;5.712;2023-10-13T06:20:16;100585.13;;;19.26;73.89
42105;BME280;70664;51.472;5.712;2023-10-13T06:23:00;100584.22;;;19.27;73.90
42105;BME280;70664;51.472;5.712;2023-10-13T06:25:51;100579.91;;;19.26;73.65
42105;BME280;70664;51.472;5.712;2023-10-13T06:28:36;100573.84;;;19.26;73.82
42105;BME280;70664;51.472;5.712;2023-10-13T06:31:09;100566.03;;;19.26;73.76
42105;BME280;70664;51.472;5.712;2023-10-13T06:33:47;100564.25;;;19.26;74.00
42105;BME280;70664;51.472;5.712;2023-10-13T06:36:13;100553.91;;;19.25;73.88
42105;BME280;70664;51.472;5.712;2023-10-13T06:38:39;100562.56;;;19.25;74.10
42105;BME280;70664;51.472;5.712;2023-10-13T06:41:06;100561.66;;;19.26;73.82
42105;BME280;70664;51.472;5.712;2023-10-13T06:47:13;100558.16;;;19.27;74.32
42105;BME280;70664;51.472;5.712;2023-10-13T06:49:40;100553.78;;;19.28;74.38
42105;BME280;70664;51.472;5.712;2023-10-13T06:52:09;100540.81;;;19.26;74.94
42105;BME280;70664;51.472;5.712;2023-10-13T06:54:36;100541.66;;;19.27;75.04
42105;BME280;70664;51.472;5.712;2023-10-13T06:57:05;100545.19;;;19.26;75.07
42105;BME280;70664;51.472;5.712;2023-10-13T06:59:36;100543.41;;;19.26;74.93
42105;BME280;70664;51.472;5.712;2023-10-13T07:02:05;100536.47;;;19.27;75.27
42105;BME280;70664;51.472;5.712;2023-10-13T07:04:32;100547.78;;;19.26;75.51
42105;BME280;70664;51.472;5.712;2023-10-13T07:06:58;100547.78;;;19.26;75.30
42105;BME280;70664;51.472;5.712;2023-10-13T07:09:27;100546.00;;;19.26;75.36
42105;BME280;70664;51.472;5.712;2023-10-13T07:12:06;100546.88;;;19.27;75.77
42105;BME280;70664;51.472;5.712;2023-10-13T07:14:35;100534.69;;;19.27;75.86
42105;BME280;70664;51.472;5.712;2023-10-13T07:17:06;100541.66;;;19.27;76.04
42105;BME280;70664;51.472;5.712;2023-10-13T07:19:34;100524.25;;;19.27;76.05
42105;BME280;70664;51.472;5.712;2023-10-13T07:22:01;100530.34;;;19.28;76.32
42105;BME280;70664;51.472;5.712;2023-10-13T07:24:48;100519.03;;;19.27;76.55
42105;BME280;70664;51.472;5.712;2023-10-13T07:27:21;100523.34;;;19.28;76.54
42105;BME280;70664;51.472;5.712;2023-10-13T07:29:57;100514.69;;;19.28;76.22
42105;BME280;70664;51.472;5.712;2023-10-13T07:32:32;100512.09;;;19.28;77.01
42105;BME280;70664;51.472;5.712;2023-10-13T07:35:00;100502.50;;;19.28;76.73
42105;BME280;70664;51.472;5.712;2023-10-13T07:37:28;100498.16;;;19.29;76.49
42105;BME280;70664;51.472;5.712;2023-10-13T07:39:56;100495.53;;;19.29;76.97
42105;BME280;70664;51.472;5.712;2023-10-13T07:42:26;100492.97;;;19.27;76.65
42105;BME280;70664;51.472;5.712;2023-10-13T07:45:06;100505.97;;;19.29;76.86
42105;BME280;70664;51.472;5.712;2023-10-13T07:47:32;100501.59;;;19.29;77.06
42105;BME280;70664;51.472;5.712;2023-10-13T07:49:59;100486.03;;;19.28;76.76
42105;BME280;70664;51.472;5.712;2023-10-13T07:52:25;100500.75;;;19.29;76.86
42105;BME280;70664;51.472;5.712;2023-10-13T07:55:06;100498.16;;;19.29;77.15
42105;BME280;70664;51.472;5.712;2023-10-13T07:57:45;100480.75;;;19.29;77.10
42105;BME280;70664;51.472;5.712;2023-10-13T08:00:22;100485.94;;;19.29;76.93
42105;BME280;70664;51.472;5.712;2023-10-13T08:03:04;100478.09;;;19.31;76.94
42105;BME280;70664;51.472;5.712;2023-10-13T08:05:52;100476.31;;;19.31;77.21
42105;BME280;70664;51.472;5.712;2023-10-13T08:08:24;100465.91;;;19.31;76.75
42105;BME280;70664;51.472;5.712;2023-10-13T08:10:52;100462.38;;;19.33;76.68
42105;BME280;70664;51.472;5.712;2023-10-13T08:13:26;100474.50;;;19.34;76.50
42105;BME280;70664;51.472;5.712;2023-10-13T08:15:52;100465.78;;;19.35;77.03
42105;BME280;70664;51.472;5.712;2023-10-13T08:18:19;100467.56;;;19.34;76.82
42105;BME280;70664;51.472;5.712;2023-10-13T08:21:01;100463.16;;;19.35;76.46
42105;BME280;70664;51.472;5.712;2023-10-13T08:23:30;100464.81;;;19.37;76.45
42105;BME280;70664;51.472;5.712;2023-10-13T08:26:15;100482.88;;;19.42;76.62
42105;BME280;70664;51.472;5.712;2023-10-13T08:28:59;100465.34;;;19.45;76.68
42105;BME280;70664;51.472;5.712;2023-10-13T08:31:50;100450.50;;;19.48;76.69
42105;BME280;70664;51.472;5.712;2023-10-13T08:34:36;100457.59;;;19.44;76.24
42105;BME280;70664;51.472;5.712;2023-10-13T08:37:12;100450.72;;;19.41;76.69
42105;BME280;70664;51.472;5.712;2023-10-13T08:39:52;100450.72;;;19.41;76.60
42105;BME280;70664;51.472;5.712;2023-10-13T08:42:45;100459.41;;;19.42;76.42
42105;BME280;70664;51.472;5.712;2023-10-13T08:45:33;100451.72;;;19.39;76.41
42105;BME280;70664;51.472;5.712;2023-10-13T08:48:00;100444.72;;;19.39;76.13
42105;BME280;70664;51.472;5.712;2023-10-13T08:50:50;100442.13;;;19.39;76.11
42105;BME280;70664;51.472;5.712;2023-10-13T08:53:24;100449.09;;;19.39;76.35
42105;BME280;70664;51.472;5.712;2023-10-13T08:56:13;100450.81;;;19.40;75.98
42105;BME280;70664;51.472;5.712;2023-10-13T08:58:50;100443.91;;;19.39;76.25
42105;BME280;70664;51.472;5.712;2023-10-13T09:01:32;100437.78;;;19.40;75.93
42105;BME280;70664;51.472;5.712;2023-10-13T09:04:18;100442.13;;;19.39;76.04
42105;BME280;70664;51.472;5.712;2023-10-13T09:09:46;100429.09;;;19.39;75.56
42105;BME280;70664;51.472;5.712;2023-10-13T09:12:14;100431.66;;;19.41;75.71
42105;BME280;70664;51.472;5.712;2023-10-13T09:14:43;100408.31;;;19.38;75.82
42105;BME280;70664;51.472;5.712;2023-10-13T09:17:12;100409.13;;;19.38;75.78
42105;BME280;70664;51.472;5.712;2023-10-13T09:19:49;100425.66;;;19.39;75.56
42105;BME280;70664;51.472;5.712;2023-10-13T09:22:30;100416.06;;;19.39;75.87
42105;BME280;70664;51.472;5.712;2023-10-13T09:25:03;100417.81;;;19.39;75.62
42105;BME280;70664;51.472;5.712;2023-10-13T09:27:33;100402.09;;;19.40;75.46
42105;BME280;70664;51.472;5.712;2023-10-13T09:30:03;100403.09;;;19.38;75.47
42105;BME280;70664;51.472;5.712;2023-10-13T09:32:47;100405.63;;;19.39;75.71
42105;BME280;70664;51.472;5.712;2023-10-13T09:35:21;100392.66;;;19.38;75.81
42105;BME280;70664;51.472;5.712;2023-10-13T09:37:53;100402.19;;;19.39;75.67
42105;BME280;70664;51.472;5.712;2023-10-13T09:40:23;100409.94;;;19.40;75.27
42105;BME280;70664;51.472;5.712;2023-10-13T09:42:55;100413.41;;;19.41;75.21
42105;BME280;70664;51.472;5.712;2023-10-13T09:45:32;100401.28;;;19.40;75.33
42105;BME280;70664;51.472;5.712;2023-10-13T09:48:04;100404.72;;;19.40;75.20
42105;BME280;70664;51.472;5.712;2023-10-13T09:50:37;100398.72;;;19.38;75.15
42105;BME280;70664;51.472;5.712;2023-10-13T09:53:06;100396.97;;;19.39;74.79
42105;BME280;70664;51.472;5.712;2023-10-13T09:55:40;100392.53;;;19.41;75.36
42105;BME280;70664;51.472;5.712;2023-10-13T09:58:11;100402.97;;;19.41;75.19
42105;BME280;70664;51.472;5.712;2023-10-13T10:00:51;100393.47;;;19.40;75.02
42105;BME280;70664;51.472;5.712;2023-10-13T10:03:24;100393.47;;;19.40;74.96
42105;BME280;70664;51.472;5.712;2023-10-13T10:06:05;100382.13;;;19.41;74.88
42105;BME280;70664;51.472;5.712;2023-10-13T10:08:35;100396.91;;;19.40;75.35
42105;BME280;70664;51.472;5.712;2023-10-13T10:11:07;100395.19;;;19.39;74.74
42105;BME280;70664;51.472;5.712;2023-10-13T10:14:01;100384.78;;;19.39;75.07
42105;BME280;70664;51.472;5.712;2023-10-13T10:19:25;100364.78;;;19.40;75.00
42105;BME280;70664;51.472;5.712;2023-10-13T10:22:05;100362.22;;;19.38;74.93
42105;BME280;70664;51.472;5.712;2023-10-13T10:24:43;100364.00;;;19.38;74.71
42105;BME280;70664;51.472;5.712;2023-10-13T10:27:10;100349.19;;;19.38;75.08
42105;BME280;70664;51.472;5.712;2023-10-13T10:29:53;100350.88;;;19.39;74.97
42105;BME280;70664;51.472;5.712;2023-10-13T10:32:19;100350.06;;;19.39;74.61
42105;BME280;70664;51.472;5.712;2023-10-13T10:34:45;100352.56;;;19.40;74.87
42105;BME280;70664;51.472;5.712;2023-10-13T10:37:12;100348.22;;;19.41;74.88
42105;BME280;70664;51.472;5.712;2023-10-13T10:39:40;100345.75;;;19.38;74.50
42105;BME280;70664;51.472;5.712;2023-10-13T10:42:13;100351.75;;;19.40;74.36
42105;BME280;70664;51.472;5.712;2023-10-13T10:44:52;100352.66;;;19.39;74.52
42105;BME280;70664;51.472;5.712;2023-10-13T10:47:21;100345.75;;;19.38;74.56
42105;BME280;70664;51.472;5.712;2023-10-13T10:50:05;100346.56;;;19.38;74.93
42105;BME280;70664;51.472;5.712;2023-10-13T10:52:43;100336.09;;;19.40;74.95
42105;BME280;70664;51.472;5.712;2023-10-13T10:55:09;100313.63;;;19.37;74.53
42105;BME280;70664;51.472;5.712;2023-10-13T10:57:43;100330.94;;;19.38;74.74
42105;BME280;70664;51.472;5.712;2023-10-13T11:00:19;100309.25;;;19.38;74.55
42105;BME280;70664;51.472;5.712;2023-10-13T11:02:55;100315.38;;;19.37;74.63
42105;BME280;70664;51.472;5.712;2023-10-13T11:05:23;100313.63;;;19.37;74.42
42105;BME280;70664;51.472;5.712;2023-10-13T11:07:58;100317.84;;;19.40;74.72
42105;BME280;70664;51.472;5.712;2023-10-13T11:10:24;100303.22;;;19.37;74.88
42105;BME280;70664;51.472;5.712;2023-10-13T11:12:58;100304.03;;;19.38;74.46
42105;BME280;70664;51.472;5.712;2023-10-13T11:15:44;100309.34;;;19.36;74.50
42105;BME280;70664;51.472;5.712;2023-10-13T11:18:11;100315.38;;;19.37;74.51
42105;BME280;70664;51.472;5.712;2023-10-13T11:20:48;100316.25;;;19.37;74.34
42105;BME280;70664;51.472;5.712;2023-10-13T11:23:20;100305.81;;;19.37;74.33
42105;BME280;70664;51.472;5.712;2023-10-13T11:26:00;100303.22;;;19.37;74.64
42105;BME280;70664;51.472;5.712;2023-10-13T11:28:26;100297.06;;;19.38;74.29
42105;BME280;70664;51.472;5.712;2023-10-13T11:30:55;100298.81;;;19.38;74.14
42105;BME280;70664;51.472;5.712;2023-10-13T11:33:26;100291.00;;;19.38;74.01
42105;BME280;70664;51.472;5.712;2023-10-13T11:35:56;100284.03;;;19.38;74.17
42105;BME280;70664;51.472;5.712;2023-10-13T11:38:33;100277.06;;;19.39;74.33
42105;BME280;70664;51.472;5.712;2023-10-13T11:41:16;100269.25;;;19.39;73.89
42105;BME280;70664;51.472;5.712;2023-10-13T11:43:54;100260.50;;;19.40;74.13
42105;BME280;70664;51.472;5.712;2023-10-13T11:46:38;100262.34;;;19.38;74.38
42105;BME280;70664;51.472;5.712;2023-10-13T11:49:11;100257.13;;;19.38;74.14
42105;BME280;70664;51.472;5.712;2023-10-13T11:51:47;100251.91;;;19.38;74.34
42105;BME280;70664;51.472;5.712;2023-10-13T11:54:17;100260.56;;;19.38;74.20
42105;BME280;70664;51.472;5.712;2023-10-13T11:56:47;100244.91;;;19.38;74.06
42105;BME280;70664;51.472;5.712;2023-10-13T11:59:13;100227.63;;;19.37;73.66
42105;BME280;70664;51.472;5.712;2023-10-13T12:01:51;100238.88;;;19.38;74.04
42105;BME280;70664;51.472;5.712;2023-10-13T12:04:38;100246.69;;;19.38;73.78
42105;BME280;70664;51.472;5.712;2023-10-13T12:07:15;100237.09;;;19.38;74.02
42105;BME280;70664;51.472;5.712;2023-10-13T12:09:50;100238.88;;;19.38;73.92
42105;BME280;70664;51.472;5.712;2023-10-13T12:12:23;100237.09;;;19.38;73.91
42105;BME280;70664;51.472;5.712;2023-10-13T12:14:49;100236.25;;;19.38;73.88
42105;BME280;70664;51.472;5.712;2023-10-13T12:17:19;100227.63;;;19.37;73.79
42105;BME280;70664;51.472;5.712;2023-10-13T12:19:54;100226.66;;;19.38;73.61
42105;BME280;70664;51.472;5.712;2023-10-13T12:22:20;100227.53;;;19.39;73.88
42105;BME280;70664;51.472;5.712;2023-10-13T12:24:55;100230.97;;;19.39;73.57
42105;BME280;70664;51.472;5.712;2023-10-13T12:27:22;100217.03;;;19.40;73.94
42105;BME280;70664;51.472;5.712;2023-10-13T12:30:14;100206.69;;;19.39;73.47
42105;BME280;70664;51.472;5.712;2023-10-13T12:32:51;100205.75;;;19.40;73.55
42105;BME280;70664;51.472;5.712;2023-10-13T12:35:32;100210.13;;;19.39;73.53
42105;BME280;70664;51.472;5.712;2023-10-13T12:38:04;100208.28;;;19.41;73.64
42105;BME280;70664;51.472;5.712;2023-10-13T12:40:42;100210.06;;;19.41;73.75
42105;BME280;70664;51.472;5.712;2023-10-13T12:43:26;100207.47;;;19.41;73.46
42105;BME280;70664;51.472;5.712;2023-10-13T12:46:11;100207.47;;;19.41;73.61
42105;BME280;70664;51.472;5.712;2023-10-13T12:49:03;100199.63;;;19.41;73.41
42105;BME280;70664;51.472;5.712;2023-10-13T12:51:51;100204.84;;;19.41;73.39
42105;BME280;70664;51.472;5.712;2023-10-13T12:54:17;100196.16;;;19.40;73.55
42105;BME280;70664;51.472;5.712;2023-10-13T12:56:49;100212.69;;;19.41;73.57
42105;BME280;70664;51.472;5.712;2023-10-13T12:59:22;100200.56;;;19.40;73.34
42105;BME280;70664;51.472;5.712;2023-10-13T13:01:53;100209.19;;;19.40;73.66
42105;BME280;70664;51.472;5.712;2023-10-13T13:04:19;100204.06;;;19.39;73.60
42105;BME280;70664;51.472;5.712;2023-10-13T13:06:57;100205.81;;;19.38;73.35
42105;BME280;70664;51.472;5.712;2023-10-13T13:09:23;100208.38;;;19.40;73.49
42105;BME280;70664;51.472;5.712;2023-10-13T13:11:53;100211.81;;;19.40;73.29
42105;BME280;70664;51.472;5.712;2023-10-13T13:14:25;100210.06;;;19.41;73.05
42105;BME280;70664;51.472;5.712;2023-10-13T13:17:00;100210.13;;;19.39;73.36
42105;BME280;70664;51.472;5.712;2023-10-13T13:19:37;100204.06;;;19.39;73.58
42105;BME280;70664;51.472;5.712;2023-10-13T13:22:07;100204.16;;;19.37;73.32
42105;BME280;70664;51.472;5.712;2023-10-13T13:24:44;100217.09;;;19.39;73.19
42105;BME280;70664;51.472;5.712;2023-10-13T13:27:14;100205.75;;;19.40;73.31
42105;BME280;70664;51.472;5.712;2023-10-13T13:29:45;100200.56;;;19.40;73.00
42105;BME280;70664;51.472;5.712;2023-10-13T13:32:12;100204.91;;;19.39;73.14
42105;BME280;70664;51.472;5.712;2023-10-13T13:34:50;100209.19;;;19.40;73.16
42105;BME280;70664;51.472;5.712;2023-10-13T13:37:33;100205.69;;;19.41;72.99
42105;BME280;70664;51.472;5.712;2023-10-13T13:40:00;100204.06;;;19.39;73.18
42105;BME280;70664;51.472;5.712;2023-10-13T13:42:42;100198.84;;;19.39;73.19
42105;BME280;70664;51.472;5.712;2023-10-13T13:45:16;100187.56;;;19.38;73.05
42105;BME280;70664;51.472;5.712;2023-10-13T13:47:53;100200.56;;;19.40;73.11
42105;BME280;70664;51.472;5.712;2023-10-13T13:50:24;100190.19;;;19.38;72.95